sensor_id;sensor_type;location;lat;lon;timestamp;pressure;altitude;pressure_sealevel;temperature;humidity
45323;BME280;31382;50.200;8.674;2024-01-30T00:04:58;101778.66;;;3.40;69.19
45323;BME280;31382;50.200;8.674;2024-01-30T00:09:59;101768.13;;;3.38;69.30
45323;BME280;31382;50.200;8.674;2024-01-30T00:15:01;101770.09;;;3.35;69.32
45323;BME280;31382;50.200;8.674;2024-01-30T00:20:03;101774.66;;;3.33;69.31
45323;BME280;31382;50.200;8.674;2024-01-30T00:25:08;101775.41;;;3.21;69.27
45323;BME280;31382;50.200;8.674;2024-01-30T00:30:10;101770.84;;;3.23;69.32
45323;BME280;31382;50.200;8.674;2024-01-30T00:35:12;101768.19;;;3.23;69.25
45323;BME280;31382;50.200;8.674;2024-01-30T00:40:14;101763.66;;;3.25;69.11
45323;BME280;31382;50.200;8.674;2024-01-30T00:45:20;101763.19;;;3.18;69.47
45323;BME280;31382;50.200;8.674;2024-01-30T00:50:21;101772.84;;;3.19;69.28
45323;BME280;31382;50.200;8.674;2024-01-30T00:55:23;101773.97;;;3.15;69.56
45323;BME280;31382;50.200;8.674;2024-01-30T01:00:24;101772.53;;;3.09;69.37
45323;BME280;31382;50.200;8.674;2024-01-30T01:05:30;101781.56;;;3.07;69.67
45323;BME280;31382;50.200;8.674;2024-01-30T01:10:32;101778.31;;;3.02;69.35
45323;BME280;31382;50.200;8.674;2024-01-30T01:15:33;101780.13;;;3.01;69.37
45323;BME280;31382;50.200;8.674;2024-01-30T01:20:34;101774.22;;;2.96;69.37
45323;BME280;31382;50.200;8.674;2024-01-30T01:25:36;101772.59;;;2.93;69.74
45323;BME280;31382;50.200;8.674;2024-01-30T01:30:37;101771.91;;;2.90;69.51
45323;BME280;31382;50.200;8.674;2024-01-30T01:35:39;101761.44;;;2.72;70.13
45323;BME280;31382;50.200;8.674;2024-01-30T01:40:41;101758.63;;;2.75;69.95
45323;BME280;31382;50.200;8.674;2024-01-30T01:45:42;101759.81;;;2.70;70.07
45323;BME280;31382;50.200;8.674;2024-01-30T01:50:44;101760.59;;;2.72;70.08
45323;BME280;31382;50.200;8.674;2024-01-30T01:55:47;101768.56;;;2.72;70.01
45323;BME280;31382;50.200;8.674;2024-01-30T02:00:50;101754.53;;;2.70;69.68
45323;BME280;31382;50.200;8.674;2024-01-30T02:05:53;101747.50;;;2.69;69.63
45323;BME280;31382;50.200;8.674;2024-01-30T02:10:55;101751.09;;;2.68;69.87
45323;BME280;31382;50.200;8.674;2024-01-30T02:15:57;101755.03;;;2.61;69.91
45323;BME280;31382;50.200;8.674;2024-01-30T02:20:59;101754.56;;;2.54;69.91
45323;BME280;31382;50.200;8.674;2024-01-30T02:26:03;101750.78;;;2.58;70.01
45323;BME280;31382;50.200;8.674;2024-01-30T02:31:05;101748.13;;;2.58;69.85
45323;BME280;31382;50.200;8.674;2024-01-30T02:36:07;101743.78;;;2.57;69.90
45323;BME280;31382;50.200;8.674;2024-01-30T02:41:08;101739.47;;;2.54;70.08
45323;BME280;31382;50.200;8.674;2024-01-30T02:46:09;101743.94;;;2.54;70.05
45323;BME280;31382;50.200;8.674;2024-01-30T02:51:11;101742.34;;;2.51;69.55
45323;BME280;31382;50.200;8.674;2024-01-30T02:56:13;101747.88;;;2.47;69.70
45323;BME280;31382;50.200;8.674;2024-01-30T03:01:14;101748.09;;;2.44;70.01
45323;BME280;31382;50.200;8.674;2024-01-30T03:06:16;101751.00;;;2.39;70.31
45323;BME280;31382;50.200;8.674;2024-01-30T03:11:18;101748.34;;;2.39;70.16
45323;BME280;31382;50.200;8.674;2024-01-30T03:16:20;101751.19;;;2.36;70.20
45323;BME280;31382;50.200;8.674;2024-01-30T03:21:22;101749.44;;;2.35;69.87
45323;BME280;31382;50.200;8.674;2024-01-30T03:26:24;101750.56;;;2.31;70.04
45323;BME280;31382;50.200;8.674;2024-01-30T03:31:25;101748.13;;;2.28;70.46
45323;BME280;31382;50.200;8.674;2024-01-30T03:36:27;101749.72;;;2.30;70.53
45323;BME280;31382;50.200;8.674;2024-01-30T03:41:29;101752.97;;;2.35;69.89
45323;BME280;31382;50.200;8.674;2024-01-30T03:46:31;101743.22;;;2.36;70.22
45323;BME280;31382;50.200;8.674;2024-01-30T03:51:32;101751.34;;;2.33;70.17
45323;BME280;31382;50.200;8.674;2024-01-30T03:56:34;101739.97;;;2.31;70.58
45323;BME280;31382;50.200;8.674;2024-01-30T04:01:35;101747.91;;;2.31;70.32
45323;BME280;31382;50.200;8.674;2024-01-30T04:06:37;101750.69;;;2.29;70.42
45323;BME280;31382;50.200;8.674;2024-01-30T04:11:39;101744.00;;;2.22;70.36
45323;BME280;31382;50.200;8.674;2024-01-30T04:16:41;101743.94;;;2.24;70.41
45323;BME280;31382;50.200;8.674;2024-01-30T04:21:42;101740.09;;;2.13;70.74
45323;BME280;31382;50.200;8.674;2024-01-30T04:26:44;101737.25;;;2.16;70.70
45323;BME280;31382;50.200;8.674;2024-01-30T04:31:45;101728.00;;;2.24;70.69
45323;BME280;31382;50.200;8.674;2024-01-30T04:36:46;101729.47;;;2.29;70.17
45323;BME280;31382;50.200;8.674;2024-01-30T04:41:48;101726.88;;;2.28;70.56
45323;BME280;31382;50.200;8.674;2024-01-30T04:46:49;101738.00;;;2.18;70.41
45323;BME280;31382;50.200;8.674;2024-01-30T04:51:51;101737.66;;;2.25;70.46
45323;BME280;31382;50.200;8.674;2024-01-30T04:56:52;101740.16;;;2.28;70.87
45323;BME280;31382;50.200;8.674;2024-01-30T05:01:54;101738.25;;;2.30;70.86
45323;BME280;31382;50.200;8.674;2024-01-30T05:06:57;101745.19;;;2.32;70.26
45323;BME280;31382;50.200;8.674;2024-01-30T05:11:59;101751.34;;;2.33;70.16
45323;BME280;31382;50.200;8.674;2024-01-30T05:17:00;101745.19;;;2.32;70.07
45323;BME280;31382;50.200;8.674;2024-01-30T05:22:04;101753.22;;;2.31;70.33
45323;BME280;31382;50.200;8.674;2024-01-30T05:27:05;101754.34;;;2.27;70.84
45323;BME280;31382;50.200;8.674;2024-01-30T05:32:07;101750.56;;;2.31;71.02
45323;BME280;31382;50.200;8.674;2024-01-30T05:37:08;101751.34;;;2.33;70.40
45323;BME280;31382;50.200;8.674;2024-01-30T05:42:10;101768.13;;;2.33;70.25
45323;BME280;31382;50.200;8.674;2024-01-30T05:47:12;101769.84;;;2.34;70.71
45323;BME280;31382;50.200;8.674;2024-01-30T05:52:13;101767.19;;;2.34;70.15
45323;BME280;31382;50.200;8.674;2024-01-30T05:57:16;101769.91;;;2.33;70.71
45323;BME280;31382;50.200;8.674;2024-01-30T06:02:17;101768.22;;;2.32;71.06
45323;BME280;31382;50.200;8.674;2024-01-30T06:07:19;101766.41;;;2.32;71.12
45323;BME280;31382;50.200;8.674;2024-01-30T06:12:21;101777.03;;;2.32;70.77
45323;BME280;31382;50.200;8.674;2024-01-30T06:17:23;101766.59;;;2.29;71.19
45323;BME280;31382;50.200;8.674;2024-01-30T06:22:24;101771.03;;;2.29;70.76
45323;BME280;31382;50.200;8.674;2024-01-30T06:27:26;101767.59;;;2.27;70.82
45323;BME280;31382;50.200;8.674;2024-01-30T06:32:27;101767.59;;;2.27;70.88
45323;BME280;31382;50.200;8.674;2024-01-30T06:37:30;101756.16;;;2.26;70.68
45323;BME280;31382;50.200;8.674;2024-01-30T06:42:31;101759.75;;;2.25;70.83
45323;BME280;31382;50.200;8.674;2024-01-30T06:47:33;101762.50;;;2.24;71.33
45323;BME280;31382;50.200;8.674;2024-01-30T06:52:34;101761.72;;;2.22;70.70
45323;BME280;31382;50.200;8.674;2024-01-30T06:57:36;101760.69;;;2.24;71.05
45323;BME280;31382;50.200;8.674;2024-01-30T07:02:37;101766.84;;;2.25;70.73
45323;BME280;31382;50.200;8.674;2024-01-30T07:07:39;101767.88;;;2.38;70.28
45323;BME280;31382;50.200;8.674;2024-01-30T07:12:40;101760.59;;;2.42;70.69
45323;BME280;31382;50.200;8.674;2024-01-30T07:17:42;101758.34;;;2.50;70.40
45323;BME280;31382;50.200;8.674;2024-01-30T07:22:43;101763.28;;;2.56;70.50
45323;BME280;31382;50.200;8.674;2024-01-30T07:27:45;101760.56;;;2.57;70.92
45323;BME280;31382;50.200;8.674;2024-01-30T07:32:47;101753.00;;;2.66;70.64
45323;BME280;31382;50.200;8.674;2024-01-30T07:37:48;101757.50;;;2.80;70.84
45323;BME280;31382;50.200;8.674;2024-01-30T07:42:50;101753.34;;;2.90;70.82
45323;BME280;31382;50.200;8.674;2024-01-30T07:47:51;101754.84;;;2.94;70.89
45323;BME280;31382;50.200;8.674;2024-01-30T07:52:53;101755.28;;;3.02;70.92
45323;BME280;31382;50.200;8.674;2024-01-30T07:57:56;101764.03;;;3.18;71.10
45323;BME280;31382;50.200;8.674;2024-01-30T08:02:58;101758.13;;;3.28;70.61
45323;BME280;31382;50.200;8.674;2024-01-30T08:08:00;101769.16;;;3.36;70.93
45323;BME280;31382;50.200;8.674;2024-01-30T08:13:02;101770.00;;;3.51;70.80
45323;BME280;31382;50.200;8.674;2024-01-30T08:18:04;101772.94;;;3.61;70.38
45323;BME280;31382;50.200;8.674;2024-01-30T08:23:07;101773.69;;;3.77;70.79
45323;BME280;31382;50.200;8.674;2024-01-30T08:28:09;101768.72;;;4.00;70.87
45323;BME280;31382;50.200;8.674;2024-01-30T08:33:11;101770.94;;;4.20;70.83
45323;BME280;31382;50.200;8.674;2024-01-30T08:38:13;101763.78;;;4.35;70.62
45323;BME280;31382;50.200;8.674;2024-01-30T08:43:14;101765.03;;;4.56;71.11
45323;BME280;31382;50.200;8.674;2024-01-30T08:48:17;101760.41;;;4.86;71.18
45323;BME280;31382;50.200;8.674;2024-01-30T08:53:19;101764.38;;;5.06;70.83
45323;BME280;31382;50.200;8.674;2024-01-30T08:58:20;101763.53;;;5.31;70.59
45323;BME280;31382;50.200;8.674;2024-01-30T09:03:22;101775.06;;;5.44;71.33
45323;BME280;31382;50.200;8.674;2024-01-30T09:08:23;101775.16;;;5.55;71.11
45323;BME280;31382;50.200;8.674;2024-01-30T09:13:25;101765.34;;;5.69;71.30
45323;BME280;31382;50.200;8.674;2024-01-30T09:18:27;101771.25;;;5.98;70.66
45323;BME280;31382;50.200;8.674;2024-01-30T09:23:28;101758.19;;;6.19;70.95
45323;BME280;31382;50.200;8.674;2024-01-30T09:28:30;101785.13;;;6.40;70.09
45323;BME280;31382;50.200;8.674;2024-01-30T09:33:31;101784.44;;;6.49;70.03
45323;BME280;31382;50.200;8.674;2024-01-30T09:38:33;101783.13;;;6.55;70.14
45323;BME280;31382;50.200;8.674;2024-01-30T09:43:34;101771.28;;;6.70;70.50
45323;BME280;31382;50.200;8.674;2024-01-30T09:48:36;101769.50;;;6.82;70.20
45323;BME280;31382;50.200;8.674;2024-01-30T09:53:38;101772.97;;;7.07;69.98
45323;BME280;31382;50.200;8.674;2024-01-30T09:58:40;101764.97;;;7.18;69.69
45323;BME280;31382;50.200;8.674;2024-01-30T10:03:43;101772.53;;;7.35;69.50
45323;BME280;31382;50.200;8.674;2024-01-30T10:08:44;101767.22;;;7.47;69.93
45323;BME280;31382;50.200;8.674;2024-01-30T10:13:46;101759.53;;;7.53;69.51
45323;BME280;31382;50.200;8.674;2024-01-30T10:18:47;101758.81;;;7.74;69.21
45323;BME280;31382;50.200;8.674;2024-01-30T10:23:49;101750.41;;;7.79;69.03
45323;BME280;31382;50.200;8.674;2024-01-30T10:28:51;101746.03;;;7.89;68.76
45323;BME280;31382;50.200;8.674;2024-01-30T10:33:52;101751.88;;;7.71;68.89
45323;BME280;31382;50.200;8.674;2024-01-30T10:39:08;101739.84;;;7.66;68.71
45323;BME280;31382;50.200;8.674;2024-01-30T10:44:10;101735.19;;;7.68;68.94
45323;BME280;31382;50.200;8.674;2024-01-30T10:49:13;101733.50;;;7.55;69.03
45323;BME280;31382;50.200;8.674;2024-01-30T10:54:17;101736.56;;;7.62;69.05
45323;BME280;31382;50.200;8.674;2024-01-30T10:59:20;101737.31;;;7.64;68.83
45323;BME280;31382;50.200;8.674;2024-01-30T11:04:24;101751.03;;;7.71;68.66
45323;BME280;31382;50.200;8.674;2024-01-30T11:09:29;101755.28;;;7.85;68.69
45323;BME280;31382;50.200;8.674;2024-01-30T11:14:31;101753.31;;;7.87;68.19
45323;BME280;31382;50.200;8.674;2024-01-30T11:19:33;101746.38;;;7.95;68.16
45323;BME280;31382;50.200;8.674;2024-01-30T11:24:41;101744.00;;;8.13;67.87
45323;BME280;31382;50.200;8.674;2024-01-30T11:29:49;101744.25;;;8.22;67.76
45323;BME280;31382;50.200;8.674;2024-01-30T11:34:52;101741.69;;;8.31;67.72
45323;BME280;31382;50.200;8.674;2024-01-30T11:39:54;101725.44;;;8.33;67.20
45323;BME280;31382;50.200;8.674;2024-01-30T11:44:56;101722.06;;;8.42;67.32
45323;BME280;31382;50.200;8.674;2024-01-30T11:49:57;101707.97;;;8.61;67.10
45323;BME280;31382;50.200;8.674;2024-01-30T11:55:02;101701.88;;;8.80;66.33
45323;BME280;31382;50.200;8.674;2024-01-30T12:00:05;101696.38;;;9.03;66.49
45323;BME280;31382;50.200;8.674;2024-01-30T12:05:12;101700.34;;;9.39;65.74
45323;BME280;31382;50.200;8.674;2024-01-30T12:10:14;101704.94;;;9.48;65.43
45323;BME280;31382;50.200;8.674;2024-01-30T12:15:18;101699.78;;;9.76;64.99
45323;BME280;31382;50.200;8.674;2024-01-30T12:20:23;101696.84;;;9.89;64.95
45323;BME280;31382;50.200;8.674;2024-01-30T12:25:25;101699.16;;;10.03;64.53
45323;BME280;31382;50.200;8.674;2024-01-30T12:30:29;101692.78;;;10.14;64.45
45323;BME280;31382;50.200;8.674;2024-01-30T12:35:31;101686.72;;;10.22;63.78
45323;BME280;31382;50.200;8.674;2024-01-30T12:40:34;101671.19;;;10.35;63.82
45323;BME280;31382;50.200;8.674;2024-01-30T12:45:37;101660.56;;;10.34;63.97
45323;BME280;31382;50.200;8.674;2024-01-30T12:50:39;101661.00;;;10.39;63.70
45323;BME280;31382;50.200;8.674;2024-01-30T12:55:41;101658.47;;;10.37;63.39
45323;BME280;31382;50.200;8.674;2024-01-30T13:00:43;101643.59;;;10.52;63.27
45323;BME280;31382;50.200;8.674;2024-01-30T13:05:44;101655.75;;;10.66;62.84
45323;BME280;31382;50.200;8.674;2024-01-30T13:10:46;101648.19;;;10.80;62.83
45323;BME280;31382;50.200;8.674;2024-01-30T13:15:50;101625.88;;;11.07;62.50
45323;BME280;31382;50.200;8.674;2024-01-30T13:20:52;101630.56;;;11.05;62.46
45323;BME280;31382;50.200;8.674;2024-01-30T13:25:53;101636.66;;;11.07;62.20
45323;BME280;31382;50.200;8.674;2024-01-30T13:30:59;101634.25;;;11.04;62.19
45323;BME280;31382;50.200;8.674;2024-01-30T13:36:01;101640.22;;;10.98;61.90
45323;BME280;31382;50.200;8.674;2024-01-30T13:41:03;101648.97;;;11.00;62.06
45323;BME280;31382;50.200;8.674;2024-01-30T13:46:04;101636.59;;;11.17;61.38
45323;BME280;31382;50.200;8.674;2024-01-30T13:51:06;101655.81;;;11.31;61.23
45323;BME280;31382;50.200;8.674;2024-01-30T13:56:08;101647.19;;;11.28;61.33
45323;BME280;31382;50.200;8.674;2024-01-30T14:01:09;101650.59;;;11.30;61.12
45323;BME280;31382;50.200;8.674;2024-01-30T14:06:11;101652.44;;;11.29;61.05
45323;BME280;31382;50.200;8.674;2024-01-30T14:11:13;101647.44;;;11.35;60.94
45323;BME280;31382;50.200;8.674;2024-01-30T14:16:15;101655.38;;;11.36;61.28
45323;BME280;31382;50.200;8.674;2024-01-30T14:21:17;101669.31;;;11.22;61.17
45323;BME280;31382;50.200;8.674;2024-01-30T14:26:18;101667.75;;;11.19;61.36
45323;BME280;31382;50.200;8.674;2024-01-30T14:31:20;101661.28;;;11.12;61.54
45323;BME280;31382;50.200;8.674;2024-01-30T14:36:23;101679.16;;;10.94;61.68
45323;BME280;31382;50.200;8.674;2024-01-30T14:41:29;101670.56;;;10.90;61.64
45323;BME280;31382;50.200;8.674;2024-01-30T14:46:31;101675.41;;;10.77;61.92
45323;BME280;31382;50.200;8.674;2024-01-30T14:51:32;101687.31;;;10.64;62.25
45323;BME280;31382;50.200;8.674;2024-01-30T14:56:34;101682.91;;;10.54;62.09
45323;BME280;31382;50.200;8.674;2024-01-30T15:01:36;101677.28;;;10.47;62.58
45323;BME280;31382;50.200;8.674;2024-01-30T15:06:37;101676.97;;;10.50;62.45
45323;BME280;31382;50.200;8.674;2024-01-30T15:11:39;101696.50;;;10.42;62.14
45323;BME280;31382;50.200;8.674;2024-01-30T15:16:41;101692.97;;;10.32;62.47
45323;BME280;31382;50.200;8.674;2024-01-30T15:21:42;101710.63;;;10.35;62.47
45323;BME280;31382;50.200;8.674;2024-01-30T15:26:44;101701.72;;;10.34;62.60
45323;BME280;31382;50.200;8.674;2024-01-30T15:31:45;101709.75;;;10.24;62.77
45323;BME280;31382;50.200;8.674;2024-01-30T15:36:47;101713.16;;;10.26;62.87
45323;BME280;31382;50.200;8.674;2024-01-30T15:41:48;101703.59;;;10.34;62.54
45323;BME280;31382;50.200;8.674;2024-01-30T15:46:50;101707.13;;;10.44;62.15
45323;BME280;31382;50.200;8.674;2024-01-30T15:51:52;101713.50;;;10.43;62.36
45323;BME280;31382;50.200;8.674;2024-01-30T15:56:53;101726.50;;;10.47;62.50
45323;BME280;31382;50.200;8.674;2024-01-30T16:01:54;101740.94;;;10.56;62.37
45323;BME280;31382;50.200;8.674;2024-01-30T16:06:56;101733.16;;;10.53;62.41
45323;BME280;31382;50.200;8.674;2024-01-30T16:11:58;101734.00;;;10.54;62.38
45323;BME280;31382;50.200;8.674;2024-01-30T16:17:00;101729.19;;;10.47;62.28
45323;BME280;31382;50.200;8.674;2024-01-30T16:22:02;101724.78;;;10.46;62.45
45323;BME280;31382;50.200;8.674;2024-01-30T16:27:03;101729.63;;;10.43;62.26
45323;BME280;31382;50.200;8.674;2024-01-30T16:32:05;101728.75;;;10.32;62.75
45323;BME280;31382;50.200;8.674;2024-01-30T16:37:07;101739.91;;;10.28;62.51
45323;BME280;31382;50.200;8.674;2024-01-30T16:42:09;101741.47;;;10.30;62.44
45323;BME280;31382;50.200;8.674;2024-01-30T16:47:10;101734.94;;;10.23;62.88
45323;BME280;31382;50.200;8.674;2024-01-30T16:52:12;101733.09;;;10.14;62.91
45323;BME280;31382;50.200;8.674;2024-01-30T16:57:13;101739.84;;;10.08;63.28
45323;BME280;31382;50.200;8.674;2024-01-30T17:02:15;101746.78;;;10.01;63.45
45323;BME280;31382;50.200;8.674;2024-01-30T17:07:16;101748.78;;;9.99;63.43
45323;BME280;31382;50.200;8.674;2024-01-30T17:12:18;101752.69;;;9.95;63.40
45323;BME280;31382;50.200;8.674;2024-01-30T17:17:20;101762.00;;;9.91;63.51
45323;BME280;31382;50.200;8.674;2024-01-30T17:22:21;101770.91;;;9.82;64.03
45323;BME280;31382;50.200;8.674;2024-01-30T17:27:23;101770.03;;;9.81;64.14
45323;BME280;31382;50.200;8.674;2024-01-30T17:32:25;101774.97;;;9.76;64.27
45323;BME280;31382;50.200;8.674;2024-01-30T17:37:27;101790.38;;;9.74;64.56
45323;BME280;31382;50.200;8.674;2024-01-30T17:42:28;101794.63;;;9.77;64.57
45323;BME280;31382;50.200;8.674;2024-01-30T17:47:30;101784.47;;;9.80;64.57
45323;BME280;31382;50.200;8.674;2024-01-30T17:52:32;101794.91;;;9.83;64.39
45323;BME280;31382;50.200;8.674;2024-01-30T17:57:34;101794.06;;;9.83;64.62
45323;BME280;31382;50.200;8.674;2024-01-30T18:02:35;101802.72;;;9.86;65.17
45323;BME280;31382;50.200;8.674;2024-01-30T18:07:37;101805.56;;;9.95;65.64
45323;BME280;31382;50.200;8.674;2024-01-30T18:12:40;101813.53;;;10.06;65.44
45323;BME280;31382;50.200;8.674;2024-01-30T18:17:42;101821.63;;;10.16;65.64
45323;BME280;31382;50.200;8.674;2024-01-30T18:22:44;101829.59;;;10.27;65.62
45323;BME280;31382;50.200;8.674;2024-01-30T18:27:47;101837.13;;;10.33;65.42
45323;BME280;31382;50.200;8.674;2024-01-30T18:32:48;101828.38;;;10.41;65.46
45323;BME280;31382;50.200;8.674;2024-01-30T18:37:50;101829.31;;;10.30;65.98
45323;BME280;31382;50.200;8.674;2024-01-30T18:42:52;101833.50;;;10.23;66.39
45323;BME280;31382;50.200;8.674;2024-01-30T18:47:53;101830.56;;;10.26;66.26
45323;BME280;31382;50.200;8.674;2024-01-30T18:52:55;101832.41;;;10.25;66.07
45323;BME280;31382;50.200;8.674;2024-01-30T18:57:57;101842.31;;;10.25;66.17
45323;BME280;31382;50.200;8.674;2024-01-30T19:02:59;101855.94;;;10.33;66.37
45323;BME280;31382;50.200;8.674;2024-01-30T19:08:00;101847.03;;;10.42;66.28
45323;BME280;31382;50.200;8.674;2024-01-30T19:13:02;101852.44;;;10.52;65.94
45323;BME280;31382;50.200;8.674;2024-01-30T19:18:06;101855.56;;;10.57;65.64
45323;BME280;31382;50.200;8.674;2024-01-30T19:23:08;101849.03;;;10.50;65.77
45323;BME280;31382;50.200;8.674;2024-01-30T19:28:09;101853.84;;;10.46;65.99
45323;BME280;31382;50.200;8.674;2024-01-30T19:33:12;101858.81;;;10.51;65.68
45323;BME280;31382;50.200;8.674;2024-01-30T19:38:13;101873.78;;;10.44;65.83
45323;BME280;31382;50.200;8.674;2024-01-30T19:43:15;101872.22;;;10.41;66.06
45323;BME280;31382;50.200;8.674;2024-01-30T19:48:17;101869.09;;;10.36;65.82
45323;BME280;31382;50.200;8.674;2024-01-30T19:53:18;101869.91;;;10.27;66.34
45323;BME280;31382;50.200;8.674;2024-01-30T19:58:21;101860.66;;;10.20;66.52
45323;BME280;31382;50.200;8.674;2024-01-30T20:03:23;101861.19;;;10.04;66.95
45323;BME280;31382;50.200;8.674;2024-01-30T20:08:25;101870.16;;;9.93;67.09
45323;BME280;31382;50.200;8.674;2024-01-30T20:13:26;101871.41;;;9.89;67.30
45323;BME280;31382;50.200;8.674;2024-01-30T20:18:29;101884.59;;;9.92;66.81
45323;BME280;31382;50.200;8.674;2024-01-30T20:23:33;101888.72;;;9.96;67.15
45323;BME280;31382;50.200;8.674;2024-01-30T20:28:34;101898.50;;;10.07;67.20
45323;BME280;31382;50.200;8.674;2024-01-30T20:33:36;101886.13;;;10.16;66.72
45323;BME280;31382;50.200;8.674;2024-01-30T20:38:38;101885.81;;;10.19;66.90
45323;BME280;31382;50.200;8.674;2024-01-30T20:43:41;101882.75;;;10.23;66.75
45323;BME280;31382;50.200;8.674;2024-01-30T20:48:43;101878.69;;;10.29;66.86
45323;BME280;31382;50.200;8.674;2024-01-30T20:53:47;101877.25;;;10.25;67.06
45323;BME280;31382;50.200;8.674;2024-01-30T20:58:48;101892.00;;;10.30;66.81
45323;BME280;31382;50.200;8.674;2024-01-30T21:03:50;101894.81;;;10.29;66.89
45323;BME280;31382;50.200;8.674;2024-01-30T21:08:51;101891.06;;;10.41;67.18
45323;BME280;31382;50.200;8.674;2024-01-30T21:13:53;101893.19;;;10.47;66.87
45323;BME280;31382;50.200;8.674;2024-01-30T21:18:54;101901.50;;;10.44;66.96
45323;BME280;31382;50.200;8.674;2024-01-30T21:23:56;101890.50;;;10.47;66.96
45323;BME280;31382;50.200;8.674;2024-01-30T21:28:57;101908.47;;;10.47;66.85
45323;BME280;31382;50.200;8.674;2024-01-30T21:33:59;101906.63;;;10.47;67.00
45323;BME280;31382;50.200;8.674;2024-01-30T21:39:01;101911.59;;;10.52;67.08
45323;BME280;31382;50.200;8.674;2024-01-30T21:44:03;101914.31;;;10.62;66.75
45323;BME280;31382;50.200;8.674;2024-01-30T21:49:05;101925.63;;;10.65;67.12
45323;BME280;31382;50.200;8.674;2024-01-30T21:54:08;101918.13;;;10.59;67.36
45323;BME280;31382;50.200;8.674;2024-01-30T21:59:10;101925.94;;;10.72;67.09
45323;BME280;31382;50.200;8.674;2024-01-30T22:04:11;101941.94;;;10.74;66.82
45323;BME280;31382;50.200;8.674;2024-01-30T22:09:13;101946.19;;;10.66;67.20
45323;BME280;31382;50.200;8.674;2024-01-30T22:14:15;101939.78;;;10.67;67.02
45323;BME280;31382;50.200;8.674;2024-01-30T22:19:17;101950.69;;;10.66;67.09
45323;BME280;31382;50.200;8.674;2024-01-30T22:24:18;101947.91;;;10.77;67.04
45323;BME280;31382;50.200;8.674;2024-01-30T22:29:23;101952.72;;;10.83;66.77
45323;BME280;31382;50.200;8.674;2024-01-30T22:34:25;101951.13;;;10.71;67.42
45323;BME280;31382;50.200;8.674;2024-01-30T22:39:27;101958.66;;;10.77;67.42
45323;BME280;31382;50.200;8.674;2024-01-30T22:44:29;101960.63;;;10.75;67.11
45323;BME280;31382;50.200;8.674;2024-01-30T22:49:31;101953.25;;;10.67;67.45
45323;BME280;31382;50.200;8.674;2024-01-30T22:54:33;101944.47;;;10.65;67.81
45323;BME280;31382;50.200;8.674;2024-01-30T22:59:34;101951.03;;;10.82;67.90
45323;BME280;31382;50.200;8.674;2024-01-30T23:04:36;101964.19;;;10.85;68.01
45323;BME280;31382;50.200;8.674;2024-01-30T23:09:38;101955.59;;;11.01;67.24
45323;BME280;31382;50.200;8.674;2024-01-30T23:14:43;101970.06;;;11.10;66.91
45323;BME280;31382;50.200;8.674;2024-01-30T23:19:46;101980.84;;;11.10;67.27
45323;BME280;31382;50.200;8.674;2024-01-30T23:24:47;101981.81;;;11.09;67.18
45323;BME280;31382;50.200;8.674;2024-01-30T23:29:49;101982.22;;;11.04;67.30
45323;BME280;31382;50.200;8.674;2024-01-30T23:34:53;101978.41;;;11.07;67.19
45323;BME280;31382;50.200;8.674;2024-01-30T23:39:58;101977.97;;;11.02;67.42
45323;BME280;31382;50.200;8.674;2024-01-30T23:44:59;101982.22;;;10.95;67.44
45323;BME280;31382;50.200;8.674;2024-01-30T23:50:01;102002.31;;;10.90;67.60
45323;BME280;31382;50.200;8.674;2024-01-30T23:55:04;101990.69;;;10.90;67.48
